Time;durP1;ratioP1;P1;durP2;ratioP2;P2;SDS_P1;SDS_P2;PMS_P1;PMS_P2;Temp;Humidity;BMP_temperature;BMP_pressure;BME280_temperature;BME280_humidity;BME280_pressure;Samples;Min_cycle;Max_cycle;Signal;HPM_P1;HPM_P2
2023/02/20 00:00:38;;;;;;;26.92;12.95;;;;;;;10.10;73.73;102471.47;5051955;28;20052;-69
2023/02/20 00:03:06;;;;;;;29.35;13.20;;;;;;;10.04;74.05;102464.25;5082760;28;20431;-67
2023/02/20 00:05:34;;;;;;;30.75;14.18;;;;;;;9.92;74.05;102462.81;5066324;28;20036;-69
2023/02/20 00:08:01;;;;;;;33.47;13.32;;;;;;;9.97;74.40;102460.09;5057619;28;20065;-68
2023/02/20 00:10:29;;;;;;;35.03;13.57;;;;;;;10.08;74.04;102456.28;5067092;28;20044;-69
2023/02/20 00:12:56;;;;;;;29.77;14.15;;;;;;;10.10;73.72;102451.38;5072972;28;20068;-69
2023/02/20 00:15:24;;;;;;;27.65;14.05;;;;;;;10.02;74.12;102449.09;5074586;28;20052;-68
2023/02/20 00:17:52;;;;;;;30.55;13.93;;;;;;;9.80;74.47;102449.25;5074470;28;20036;-69
2023/02/20 00:20:24;;;;;;;35.50;13.80;;;;;;;9.81;75.01;102450.91;5054550;28;20049;-69
2023/02/20 00:22:52;;;;;;;39.60;15.60;;;;;;;9.74;75.19;102446.75;5076552;28;20059;-68
2023/02/20 00:25:20;;;;;;;32.05;14.73;;;;;;;10.01;74.36;102444.69;5063159;28;20739;-69
2023/02/20 00:27:47;;;;;;;35.67;13.43;;;;;;;9.81;74.57;102439.06;5075967;28;20047;-70
2023/02/20 00:30:18;;;;;;;31.05;14.30;;;;;;;9.73;75.13;102434.91;5069383;28;20045;-69
2023/02/20 00:32:47;;;;;;;30.80;14.23;;;;;;;9.79;75.36;102438.50;5062922;28;20719;-68
2023/02/20 00:35:16;;;;;;;28.50;13.18;;;;;;;9.66;75.37;102430.75;5071440;28;20040;-68
2023/02/20 00:37:45;;;;;;;28.98;13.15;;;;;;;9.73;75.11;102428.56;5071111;28;20052;-71
2023/02/20 00:40:13;;;;;;;28.17;13.77;;;;;;;9.56;75.70;102431.50;5054539;28;20049;-69
2023/02/20 00:42:40;;;;;;;30.98;13.02;;;;;;;9.61;75.70;102431.53;5058260;28;20399;-70
2023/02/20 00:45:09;;;;;;;30.17;13.43;;;;;;;9.65;75.64;102432.66;5073993;28;20044;-68
2023/02/20 00:47:37;;;;;;;41.30;18.92;;;;;;;9.59;75.69;102430.94;5073344;28;20511;-70
2023/02/20 00:50:05;;;;;;;54.83;23.85;;;;;;;9.77;75.02;102430.53;5076534;28;20056;-70
2023/02/20 00:52:33;;;;;;;39.47;14.77;;;;;;;9.69;75.06;102431.00;5075315;28;20044;-69
2023/02/20 00:55:01;;;;;;;31.98;13.88;;;;;;;9.70;74.88;102427.19;5062459;28;20068;-69
2023/02/20 00:57:28;;;;;;;37.60;17.48;;;;;;;9.71;75.13;102428.00;5072549;28;20385;-68
2023/02/20 00:59:56;;;;;;;46.70;22.75;;;;;;;9.81;75.00;102430.81;5076473;28;20131;-69
2023/02/20 01:02:23;;;;;;;32.15;14.52;;;;;;;9.73;75.12;102428.56;5074062;28;20063;-67
2023/02/20 01:04:51;;;;;;;31.23;13.15;;;;;;;9.87;75.06;102422.31;5072470;28;20055;-67
2023/02/20 01:07:18;;;;;;;24.35;11.50;;;;;;;9.76;74.61;102423.34;5069552;28;20041;-68
2023/02/20 01:09:45;;;;;;;31.45;12.05;;;;;;;9.88;74.29;102423.16;5080576;28;20052;-68
2023/02/20 01:12:15;;;;;;;27.90;12.00;;;;;;;9.60;75.08;102427.13;5057590;28;20052;-68
2023/02/20 01:14:42;;;;;;;23.33;10.88;;;;;;;9.34;75.66;102419.78;5075813;28;20051;-68
2023/02/20 01:17:11;;;;;;;28.63;12.52;;;;;;;9.07;77.06;102421.75;5074683;28;20045;-68
2023/02/20 01:19:39;;;;;;;29.58;13.15;;;;;;;9.34;76.92;102418.94;5067648;28;20052;-68
2023/02/20 01:22:07;;;;;;;29.50;12.40;;;;;;;9.61;75.70;102422.44;5072807;28;20052;-69
2023/02/20 01:24:35;;;;;;;27.92;12.40;;;;;;;9.80;74.72;102423.63;5071757;28;20403;-67
2023/02/20 01:27:02;;;;;;;26.67;10.98;;;;;;;9.73;74.62;102421.13;5069234;28;20048;-70
2023/02/20 01:29:30;;;;;;;29.10;12.35;;;;;;;9.61;75.25;102412.25;5075250;28;20056;-70
2023/02/20 01:31:58;;;;;;;25.88;10.80;;;;;;;9.72;74.73;102418.66;5070208;28;20060;-70
2023/02/20 01:34:26;;;;;;;25.23;11.93;;;;;;;9.74;74.98;102417.31;5055800;28;20052;-68
2023/02/20 01:36:55;;;;;;;25.02;11.60;;;;;;;9.71;74.26;102415.06;5054156;28;20041;-68
2023/02/20 01:39:27;;;;;;;31.35;11.35;;;;;;;9.73;74.73;102423.03;5058133;28;20523;-68
2023/02/20 01:41:58;;;;;;;25.70;10.48;;;;;;;9.77;74.44;102415.94;5074786;28;20057;-68
2023/02/20 01:44:31;;;;;;;24.58;9.15;;;;;;;9.69;74.38;102411.75;5075533;28;20067;-69
2023/02/20 01:46:59;;;;;;;20.38;8.93;;;;;;;9.67;74.61;102415.88;5071134;28;20044;-68
2023/02/20 01:49:37;;;;;;;24.65;9.75;;;;;;;9.67;74.66;102422.22;5061375;28;20052;-67
2023/02/20 01:52:11;;;;;;;23.75;9.50;;;;;;;9.39;75.30;102417.06;5069394;28;20376;-68
2023/02/20 01:54:39;;;;;;;21.38;8.70;;;;;;;9.43;75.67;102426.44;5076432;28;20056;-68
2023/02/20 01:57:13;;;;;;;20.98;8.95;;;;;;;9.19;76.59;102422.41;5074251;28;20055;-68
2023/02/20 01:59:43;;;;;;;22.30;8.45;;;;;;;9.35;76.00;102428.84;5058849;28;20514;-69
2023/02/20 02:02:13;;;;;;;23.00;8.82;;;;;;;9.18;76.14;102436.41;5057884;28;20052;-69
2023/02/20 02:04:41;;;;;;;23.02;8.70;;;;;;;9.30;76.63;102443.41;5076472;28;20519;-69
2023/02/20 02:07:09;;;;;;;20.88;7.72;;;;;;;9.30;76.34;102440.66;5075707;28;20049;-69
2023/02/20 02:09:39;;;;;;;24.55;6.78;;;;;;;9.38;75.94;102439.34;5074608;28;20048;-68
2023/02/20 02:12:08;;;;;;;21.45;7.72;;;;;;;9.46;75.81;102434.19;5063388;28;20064;-68
2023/02/20 02:14:35;;;;;;;23.40;7.10;;;;;;;9.66;75.06;102431.53;5055150;28;20055;-68
2023/02/20 02:17:38;;;;;;;16.40;7.20;;;;;;;9.79;74.53;102427.50;5070972;28;20051;-68
2023/02/20 02:20:15;;;;;;;17.15;7.10;;;;;;;9.64;75.29;102419.97;5072939;28;20148;-68
2023/02/20 02:22:54;;;;;;;25.95;7.60;;;;;;;9.46;75.24;102420.44;5088434;28;20419;-70
2023/02/20 02:25:22;;;;;;;19.65;7.53;;;;;;;9.42;75.70;102408.28;5074186;28;20056;-68
2023/02/20 02:28:29;;;;;;;20.02;7.47;;;;;;;9.20;76.68;102401.25;5069913;28;20044;-68
2023/02/20 02:31:20;;;;;;;20.48;7.13;;;;;;;9.25;76.41;102404.03;5051706;28;20067;-67
2023/02/20 02:34:03;;;;;;;21.50;7.25;;;;;;;9.20;77.22;102399.34;5075681;28;20071;-70
2023/02/20 02:36:33;;;;;;;19.75;6.45;;;;;;;9.29;76.84;102396.91;5073290;28;20056;-68
2023/02/20 02:39:13;;;;;;;23.13;8.13;;;;;;;9.37;76.48;102394.50;5075622;28;20059;-67
2023/02/20 02:41:43;;;;;;;21.25;6.93;;;;;;;9.37;76.30;102389.00;5073299;28;20063;-68
2023/02/20 02:44:33;;;;;;;19.75;6.75;;;;;;;9.44;76.04;102399.75;5074795;28;20059;-69
2023/02/20 02:47:06;;;;;;;24.97;7.27;;;;;;;9.10;76.65;102388.25;5057440;28;20040;-68
2023/02/20 02:49:49;;;;;;;22.27;6.88;;;;;;;9.43;76.38;102385.19;5057344;28;20778;-68
2023/02/20 02:52:37;;;;;;;19.65;7.00;;;;;;;9.47;75.92;102377.22;5056991;28;20067;-68
2023/02/20 02:55:08;;;;;;;21.67;7.35;;;;;;;9.51;75.25;102378.34;5074148;28;20475;-69
2023/02/20 02:57:36;;;;;;;20.27;7.55;;;;;;;9.31;75.92;102378.25;5074375;28;20419;-69
2023/02/20 03:00:16;;;;;;;18.30;7.28;;;;;;;9.00;77.21;102378.00;5073999;28;20056;-68
2023/02/20 03:02:49;;;;;;;26.20;7.72;;;;;;;8.85;78.31;102377.06;5075031;28;20059;-68
2023/02/20 03:05:19;;;;;;;;;;;;;;;8.88;78.71;102376.53;5074056;28;20075;-68
2023/02/20 03:07:49;;;;;;;21.10;6.75;;;;;;;8.90;78.33;102377.09;5054148;28;19920;-68
2023/02/20 03:10:30;;;;;;;21.83;7.60;;;;;;;8.79;78.53;102369.84;5054384;28;20049;-68
2023/02/20 03:13:02;;;;;;;20.02;7.40;;;;;;;8.73;79.32;102371.75;5073601;28;20048;-67
2023/02/20 03:15:40;;;;;;;22.70;7.03;;;;;;;8.74;78.93;102375.28;5073508;28;20052;-67
2023/02/20 03:18:37;;;;;;;25.85;7.32;;;;;;;8.76;78.91;102373.13;5073881;28;20041;-68
2023/02/20 03:21:11;;;;;;;20.15;7.78;;;;;;;8.40;80.23;102377.44;5074207;28;20052;-68
2023/02/20 03:23:43;;;;;;;22.38;8.00;;;;;;;8.37;80.82;102372.44;5073892;28;20060;-69
2023/02/20 03:26:16;;;;;;;32.88;8.98;;;;;;;8.70;80.12;102358.50;5074510;28;20123;-67
2023/02/20 03:29:00;;;;;;;22.30;8.68;;;;;;;8.76;78.78;102351.13;5043865;28;20060;-67
2023/02/20 03:43:25;;;;;;;19.20;8.25;;;;;;;8.62;78.81;102338.94;5072208;28;20048;-68
2023/02/20 03:46:17;;;;;;;21.08;7.93;;;;;;;8.39;80.05;102328.25;5073349;28;20041;-68
2023/02/20 03:48:46;;;;;;;20.02;8.20;;;;;;;8.56;79.29;102329.00;5057157;28;20056;-66
2023/02/20 03:51:14;;;;;;;23.77;7.33;;;;;;;8.51;79.35;102324.28;5072967;28;20515;-67
2023/02/20 03:53:57;;;;;;;24.77;7.43;;;;;;;8.56;79.87;102327.06;5058968;28;20048;-67
2023/02/20 03:56:29;;;;;;;22.58;7.88;;;;;;;8.70;79.03;102320.03;5089943;28;20044;-67
2023/02/20 03:59:03;;;;;;;26.80;7.88;;;;;;;8.87;78.22;102315.22;5089748;28;20051;-70
2023/02/20 04:01:31;;;;;;;19.80;7.93;;;;;;;8.83;78.47;102316.03;5072600;28;20055;-68
2023/02/20 04:03:59;;;;;;;23.50;7.53;;;;;;;8.76;78.65;102318.16;5074483;28;20049;-68
2023/02/20 04:06:29;;;;;;;22.08;7.53;;;;;;;8.71;78.87;102321.72;5074220;28;20362;-68
2023/02/20 04:09:12;;;;;;;23.70;7.80;;;;;;;8.68;78.96;102313.97;5056751;28;20059;-68
2023/02/20 04:11:49;;;;;;;23.52;7.55;;;;;;;8.70;79.06;102309.06;5071973;28;20057;-69
2023/02/20 04:14:18;;;;;;;23.30;8.02;;;;;;;8.89;78.59;102304.81;5057090;28;20056;-68
2023/02/20 04:16:52;;;;;;;19.83;7.88;;;;;;;8.77;78.56;102314.34;5056555;28;20044;-68
2023/02/20 04:19:20;;;;;;;25.25;8.63;;;;;;;8.88;78.59;102302.31;5056681;28;20053;-68
2023/02/20 04:22:09;;;;;;;22.92;7.90;;;;;;;8.52;80.33;102311.38;5056182;28;20056;-68
2023/02/20 04:24:43;;;;;;;24.65;8.75;;;;;;;8.58;79.99;102313.06;5056938;28;20052;-68
2023/02/20 04:27:11;;;;;;;30.83;8.20;;;;;;;8.56;80.65;102313.31;5063453;28;20049;-68
2023/02/20 04:29:46;;;;;;;27.38;8.25;;;;;;;8.28;81.92;102318.28;5037832;28;20053;-67
2023/02/20 04:32:14;;;;;;;25.42;7.95;;;;;;;8.41;82.23;102315.94;5071130;28;20060;-67
2023/02/20 04:34:42;;;;;;;26.23;8.25;;;;;;;8.43;82.32;102310.19;5090188;28;20045;-68
2023/02/20 04:37:16;;;;;;;26.25;8.57;;;;;;;8.39;81.48;102315.38;5074087;28;20056;-68
2023/02/20 04:39:44;;;;;;;26.55;8.57;;;;;;;8.12;82.97;102313.69;5073069;28;20056;-69
2023/02/20 04:42:11;;;;;;;38.85;9.63;;;;;;;8.02;84.15;102319.88;5071399;28;20408;-69
2023/02/20 04:44:41;;;;;;;21.95;8.52;;;;;;;8.09;83.72;102305.97;5056102;28;20060;-68
2023/02/20 04:47:13;;;;;;;26.80;9.45;;;;;;;8.01;83.86;102318.25;5059161;28;20549;-68
2023/02/20 04:49:41;;;;;;;;;;;;;;;7.91;84.10;102313.44;5060884;28;20400;-68
2023/02/20 04:52:10;;;;;;;26.38;8.95;;;;;;;8.10;84.88;102315.84;5075938;28;19931;-69
2023/02/20 04:54:39;;;;;;;27.17;9.30;;;;;;;8.36;83.54;102310.41;5076021;28;20055;-69
2023/02/20 04:57:08;;;;;;;28.80;9.32;;;;;;;8.38;82.56;102319.22;5075509;28;20058;-69
2023/02/20 04:59:36;;;;;;;19.95;8.70;;;;;;;8.30;82.73;102316.13;5076262;28;20052;-68
2023/02/20 05:02:04;;;;;;;21.30;8.80;;;;;;;8.33;82.10;102313.69;5075158;28;20048;-67
2023/02/20 05:04:32;;;;;;;20.95;8.45;;;;;;;8.29;82.35;102309.78;5076294;28;20048;-69
2023/02/20 05:06:59;;;;;;;20.70;8.32;;;;;;;8.46;81.78;102304.16;5076082;28;20072;-68
2023/02/20 05:09:27;;;;;;;26.63;9.70;;;;;;;8.40;81.79;102311.56;5077897;28;20048;-68
2023/02/20 05:11:54;;;;;;;24.10;9.77;;;;;;;8.39;81.82;102306.28;5075973;28;20052;-68
2023/02/20 05:14:22;;;;;;;21.85;8.73;;;;;;;8.54;80.80;102299.03;5077172;28;20052;-68
2023/02/20 05:16:50;;;;;;;24.80;9.55;;;;;;;8.41;80.85;102307.72;5074951;28;20057;-68
2023/02/20 05:19:17;;;;;;;25.30;9.40;;;;;;;8.32;81.17;102312.00;5077097;28;20491;-69
2023/02/20 05:24:31;;;;;;;25.02;9.02;;;;;;;8.56;80.59;102298.78;5076892;28;20075;-69
2023/02/20 05:26:58;;;;;;;24.85;10.00;;;;;;;8.29;81.75;102293.31;5039896;28;20503;-68
2023/02/20 05:29:26;;;;;;;26.02;9.55;;;;;;;8.34;81.49;102292.53;5076973;28;20531;-68
2023/02/20 05:31:54;;;;;;;25.30;9.55;;;;;;;8.39;81.24;102298.06;5076442;28;20048;-68
2023/02/20 05:34:24;;;;;;;24.10;9.40;;;;;;;8.42;80.98;102303.06;5077021;28;20059;-68
2023/02/20 05:36:52;;;;;;;;;;;;;;;8.15;81.73;102286.56;5059520;28;20048;-68
2023/02/20 05:39:19;;;;;;;25.83;9.55;;;;;;;8.18;81.88;102290.69;5076797;28;20396;-69
2023/02/20 05:41:48;;;;;;;24.98;9.95;;;;;;;8.29;81.80;102287.00;5070296;28;20052;-70
2023/02/20 05:44:15;;;;;;;28.80;9.75;;;;;;;8.27;81.19;102287.25;5076869;28;20472;-68
2023/02/20 05:46:42;;;;;;;24.08;9.70;;;;;;;8.24;81.55;102289.69;5076163;28;20045;-69
2023/02/20 05:49:11;;;;;;;22.95;9.48;;;;;;;8.29;81.28;102292.47;5076772;28;20652;-67
2023/02/20 05:51:38;;;;;;;27.55;9.45;;;;;;;8.29;81.24;102285.09;5074344;28;20361;-68
2023/02/20 05:54:06;;;;;;;31.63;10.27;;;;;;;8.40;80.98;102286.00;5076585;28;20047;-67
2023/02/20 05:56:33;;;;;;;24.63;9.13;;;;;;;8.21;81.72;102285.50;5074929;28;20056;-68
2023/02/20 05:59:00;;;;;;;23.42;9.43;;;;;;;8.19;81.81;102292.34;5076541;28;20044;-67
2023/02/20 06:01:30;;;;;;;31.23;9.50;;;;;;;8.13;82.26;102290.63;5074514;28;20049;-68
2023/02/20 06:04:00;;;;;;;26.15;10.05;;;;;;;8.35;81.47;102285.97;5076332;28;20044;-67
2023/02/20 06:06:38;;;;;;;23.13;10.15;;;;;;;8.32;81.29;102292.78;5075958;28;20048;-68
2023/02/20 06:09:07;;;;;;;27.17;9.02;;;;;;;8.40;80.87;102288.75;5075007;28;20511;-68
2023/02/20 06:11:35;;;;;;;23.20;9.23;;;;;;;8.45;81.13;102286.88;5072429;28;20064;-68
2023/02/20 06:14:04;;;;;;;24.52;9.90;;;;;;;8.40;80.95;102284.09;5056072;28;20055;-68
2023/02/20 06:16:33;;;;;;;24.33;9.63;;;;;;;8.37;81.12;102289.28;5064439;28;20067;-69
2023/02/20 06:19:01;;;;;;;27.15;9.95;;;;;;;8.38;81.12;102291.75;5074743;28;20063;-68
2023/02/20 06:21:28;;;;;;;29.02;9.05;;;;;;;8.29;81.29;102287.00;5074333;28;20056;-67
2023/02/20 06:23:55;;;;;;;27.02;9.73;;;;;;;8.34;81.70;102287.88;5075524;28;20045;-69
2023/02/20 06:26:24;;;;;;;29.33;9.45;;;;;;;8.37;81.44;102290.09;5069099;28;20056;-68
2023/02/20 06:28:53;;;;;;;29.25;10.13;;;;;;;8.38;81.11;102294.50;5065063;28;20052;-67
2023/02/20 06:31:23;;;;;;;25.20;9.90;;;;;;;8.35;81.56;102288.72;5075485;28;20055;-68
2023/02/20 06:33:51;;;;;;;27.23;9.38;;;;;;;8.44;81.56;102289.91;5075071;28;20056;-69
2023/02/20 06:36:23;;;;;;;25.85;9.93;;;;;;;8.53;81.04;102291.88;5072494;28;20055;-68
2023/02/20 06:38:51;;;;;;;33.42;10.63;;;;;;;8.35;81.17;102292.25;5074438;28;20044;-68
2023/02/20 06:41:18;;;;;;;25.00;10.45;;;;;;;8.41;82.13;102296.72;5075451;28;20063;-69
2023/02/20 06:43:46;;;;;;;32.17;11.52;;;;;;;8.73;81.22;102303.06;5075409;28;20052;-68
2023/02/20 06:46:13;;;;;;;24.40;10.50;;;;;;;8.78;80.23;102294.00;5073769;28;20079;-68
2023/02/20 06:48:46;;;;;;;26.58;9.45;;;;;;;8.75;80.34;102295.34;5074996;28;20190;-69
2023/02/20 06:51:22;;;;;;;28.00;10.48;;;;;;;8.75;80.77;102302.78;5066886;28;20056;-67
2023/02/20 06:53:50;;;;;;;28.42;10.73;;;;;;;8.37;82.33;102298.31;5074155;28;20530;-69
2023/02/20 06:56:23;;;;;;;28.67;11.02;;;;;;;7.94;83.06;102298.41;5073829;28;20492;-67
2023/02/20 06:58:52;;;;;;;30.42;10.52;;;;;;;7.96;83.58;102305.31;5075799;28;20049;-68
2023/02/20 07:01:22;;;;;;;27.60;10.70;;;;;;;7.94;83.37;102296.50;5073707;28;20048;-70
2023/02/20 07:03:49;;;;;;;35.08;12.43;;;;;;;7.83;83.27;102291.97;5072377;28;20538;-68
2023/02/20 07:06:17;;;;;;;33.70;12.15;;;;;;;7.40;84.41;102288.41;5074167;28;20044;-68
2023/02/20 07:08:44;;;;;;;31.95;12.43;;;;;;;7.40;85.35;102294.72;5060170;28;20045;-69
2023/02/20 07:11:12;;;;;;;31.15;12.60;;;;;;;7.59;84.83;102300.72;5061935;28;20040;-68
2023/02/20 07:13:39;;;;;;;33.70;11.95;;;;;;;7.89;83.75;102299.19;5074150;28;20056;-68
2023/02/20 07:16:07;;;;;;;30.55;11.32;;;;;;;7.92;82.70;102306.06;5062856;28;20052;-68
2023/02/20 07:18:35;;;;;;;27.48;12.50;;;;;;;7.78;83.03;102313.84;5074858;28;20044;-68
2023/02/20 07:21:02;;;;;;;30.45;11.82;;;;;;;7.83;82.85;102321.31;5066146;28;20068;-68
2023/02/20 07:23:30;;;;;;;28.10;11.57;;;;;;;7.91;82.26;102313.44;5055487;28;20052;-68
2023/02/20 07:25:57;;;;;;;27.02;11.40;;;;;;;8.00;81.68;102319.34;5072670;28;20067;-68
2023/02/20 07:28:25;;;;;;;26.25;11.15;;;;;;;7.89;81.48;102325.78;5070299;28;20045;-68
2023/02/20 07:30:53;;;;;;;29.00;11.98;;;;;;;7.97;81.03;102323.41;5067706;28;20071;-69
2023/02/20 07:33:20;;;;;;;29.95;12.40;;;;;;;7.94;80.96;102331.31;5067179;28;20040;-70
2023/02/20 07:35:47;;;;;;;29.83;12.23;;;;;;;8.08;80.89;102327.09;5060697;28;20455;-68
2023/02/20 07:38:15;;;;;;;23.30;11.35;;;;;;;8.16;79.97;102321.13;5069998;28;20881;-68
2023/02/20 07:40:42;;;;;;;27.52;11.75;;;;;;;8.09;80.36;102331.47;5069822;28;20051;-70
2023/02/20 07:43:10;;;;;;;27.88;12.57;;;;;;;8.14;80.51;102333.47;5070390;28;20407;-68
2023/02/20 07:45:38;;;;;;;25.52;11.68;;;;;;;8.14;80.41;102333.47;5068514;28;20444;-68
2023/02/20 07:48:05;;;;;;;31.02;13.27;;;;;;;8.07;80.77;102336.44;5060947;28;20071;-71
2023/02/20 07:50:33;;;;;;;36.83;18.08;;;;;;;8.11;80.88;102332.06;5073733;28;20079;-68
2023/02/20 07:53:01;;;;;;;36.22;12.95;;;;;;;8.02;80.96;102335.53;5068926;28;20056;-70
2023/02/20 07:55:28;;;;;;;31.48;12.85;;;;;;;8.06;81.44;102334.75;5057728;28;20049;-68
2023/02/20 07:57:57;;;;;;;34.72;13.50;;;;;;;7.99;82.11;102337.72;5070754;28;20491;-69
2023/02/20 08:00:25;;;;;;;34.05;13.20;;;;;;;8.21;80.83;102334.91;5050140;28;20087;-67
2023/02/20 08:02:53;;;;;;;27.30;12.68;;;;;;;8.14;81.68;102339.81;5071324;28;20045;-65
2023/02/20 08:05:21;;;;;;;32.38;13.18;;;;;;;8.14;81.84;102334.31;5065837;28;20047;-65
2023/02/20 08:07:49;;;;;;;34.33;12.68;;;;;;;8.27;81.55;102331.19;5081026;28;20533;-65
2023/02/20 08:10:19;;;;;;;32.50;12.30;;;;;;;8.27;81.59;102330.34;5083519;28;20055;-65
2023/02/20 08:12:48;;;;;;;25.75;11.15;;;;;;;8.31;81.62;102328.75;5077239;28;20044;-64
2023/02/20 08:15:17;;;;;;;27.83;11.90;;;;;;;8.90;80.19;102342.22;5067876;28;20043;-65
2023/02/20 08:17:44;;;;;;;30.70;12.10;;;;;;;8.47;80.40;102339.59;5065755;28;20048;-67
2023/02/20 08:20:15;;;;;;;26.08;11.48;;;;;;;8.67;80.16;102339.81;5080684;28;20044;-66
2023/02/20 08:22:47;;;;;;;34.45;12.23;;;;;;;8.56;80.10;102343.53;5073537;28;20059;-66
2023/02/20 08:25:15;;;;;;;31.13;12.88;;;;;;;8.52;80.54;102341.59;5074883;28;20412;-65
2023/02/20 08:27:45;;;;;;;33.28;13.73;;;;;;;8.60;80.69;102339.19;5070616;28;20380;-65
2023/02/20 08:30:24;;;;;;;34.92;12.45;;;;;;;8.69;81.04;102345.88;5074037;28;20048;-66
2023/02/20 08:32:53;;;;;;;32.58;13.57;;;;;;;8.65;80.88;102341.97;5072844;28;20040;-65
2023/02/20 08:35:25;;;;;;;44.10;17.88;;;;;;;8.81;80.35;102345.69;5071446;28;20052;-65
2023/02/20 08:37:52;;;;;;;35.53;16.30;;;;;;;8.90;80.20;102344.13;5077496;28;20048;-64
2023/02/20 08:40:20;;;;;;;30.83;13.65;;;;;;;8.86;79.83;102348.47;5072111;28;21636;-65
2023/02/20 08:42:50;;;;;;;31.17;13.95;;;;;;;9.20;79.26;102349.84;5066435;28;20053;-65
2023/02/20 08:45:18;;;;;;;33.03;12.68;;;;;;;9.03;79.27;102341.75;5066793;28;20116;-65
2023/02/20 08:47:47;;;;;;;32.42;12.80;;;;;;;9.00;79.91;102344.19;5090444;28;20044;-65
2023/02/20 08:50:17;;;;;;;35.28;12.52;;;;;;;9.07;79.92;102340.13;5063985;28;20064;-65
2023/02/20 08:52:45;;;;;;;29.25;12.82;;;;;;;9.13;79.76;102340.16;5071466;28;20048;-65
2023/02/20 08:55:13;;;;;;;28.65;11.95;;;;;;;9.17;80.41;102339.34;5082083;28;20399;-65
2023/02/20 08:57:44;;;;;;;27.15;11.50;;;;;;;8.91;80.84;102345.75;5070834;28;20063;-67
2023/02/20 09:00:14;;;;;;;34.00;12.88;;;;;;;8.81;82.53;102343.78;5065116;28;20444;-66
2023/02/20 09:02:42;;;;;;;33.53;13.30;;;;;;;9.34;81.43;102337.28;5074604;28;20052;-66
2023/02/20 09:05:09;;;;;;;20.50;9.15;;;;;;;9.24;80.71;102333.66;5072015;28;20052;-65
2023/02/20 09:07:37;;;;;;;21.48;10.32;;;;;;;9.53;81.15;102344.00;5071702;28;20060;-64
2023/02/20 09:10:05;;;;;;;26.42;10.10;;;;;;;9.51;82.97;102337.94;5066963;28;20126;-66
2023/02/20 09:12:32;;;;;;;26.73;10.10;;;;;;;9.25;82.86;102340.78;5070153;28;20051;-66
2023/02/20 09:15:00;;;;;;;24.52;9.85;;;;;;;9.48;81.93;102340.38;5074688;28;20056;-66
2023/02/20 09:17:28;;;;;;;24.30;10.90;;;;;;;9.53;81.02;102333.00;5073526;28;20052;-66
2023/02/20 09:19:55;;;;;;;20.48;9.55;;;;;;;9.75;82.53;102332.81;5072690;28;20040;-65
2023/02/20 09:22:24;;;;;;;21.70;8.90;;;;;;;9.86;82.21;102332.59;5071700;28;20072;-65
2023/02/20 09:24:52;;;;;;;18.73;9.02;;;;;;;9.67;82.87;102331.41;5076390;28;20064;-67
2023/02/20 09:27:20;;;;;;;21.52;9.18;;;;;;;9.75;81.64;102338.31;5071709;28;20518;-66
2023/02/20 09:29:47;;;;;;;19.85;8.38;;;;;;;10.09;80.55;102326.63;5076556;28;20040;-68
2023/02/20 09:32:15;;;;;;;24.95;9.63;;;;;;;10.16;79.64;102335.47;5049139;28;20055;-69
2023/02/20 09:34:43;;;;;;;24.75;8.85;;;;;;;10.17;79.95;102333.56;5065158;28;20049;-70
2023/02/20 09:37:11;;;;;;;25.90;9.80;;;;;;;10.35;78.70;102338.56;5066742;28;20063;-69
2023/02/20 09:39:38;;;;;;;23.13;9.27;;;;;;;10.27;78.20;102325.31;5066577;28;20044;-69
2023/02/20 09:42:24;;;;;;;20.98;8.80;;;;;;;10.03;79.76;102326.88;5062331;28;20074;-70
2023/02/20 09:45:30;;;;;;;23.05;9.00;;;;;;;10.35;79.27;102322.03;5069015;28;20059;-70
2023/02/20 09:47:57;;;;;;;21.15;7.72;;;;;;;10.32;78.35;102314.28;5070046;28;20044;-68
2023/02/20 09:50:50;;;;;;;22.23;8.38;;;;;;;10.39;78.04;102323.13;5088122;28;20053;-68
2023/02/20 09:53:24;;;;;;;34.55;16.48;;;;;;;11.25;76.21;102329.44;5086918;28;20032;-68
2023/02/20 09:55:54;;;;;;;22.75;10.10;;;;;;;11.16;74.63;102318.16;5068524;28;20049;-68
2023/02/20 09:58:32;;;;;;;22.52;7.50;;;;;;;10.82;75.64;102319.03;5068063;28;20041;-67
2023/02/20 10:01:12;;;;;;;18.98;7.53;;;;;;;10.45;77.25;102321.22;5064083;28;20036;-67
2023/02/20 10:03:57;;;;;;;27.67;12.35;;;;;;;11.01;76.31;102329.22;5069753;28;20412;-68
2023/02/20 10:06:31;;;;;;;17.23;6.90;;;;;;;11.10;74.74;102319.28;5064727;28;20060;-67
2023/02/20 10:09:01;;;;;;;23.27;7.13;;;;;;;11.17;74.01;102319.84;5069773;28;20049;-68
2023/02/20 10:11:57;;;;;;;18.70;7.07;;;;;;;11.05;73.38;102311.00;5081052;28;20044;-67
2023/02/20 10:14:36;;;;;;;19.48;7.53;;;;;;;11.03;73.41;102312.41;5071485;28;20052;-67
2023/02/20 10:17:15;;;;;;;23.45;8.88;;;;;;;11.32;72.75;102308.75;5072204;28;20173;-68
2023/02/20 10:19:54;;;;;;;19.60;8.07;;;;;;;11.35;72.74;102307.34;5065486;28;20200;-68
2023/02/20 10:22:31;;;;;;;25.90;11.15;;;;;;;11.22;72.94;102316.22;5066109;28;20164;-68
2023/02/20 10:25:06;;;;;;;25.77;12.65;;;;;;;10.66;74.34;102309.94;5058333;28;20056;-69
2023/02/20 10:27:47;;;;;;;31.90;13.82;;;;;;;10.49;75.35;102309.38;5080644;28;20048;-68
2023/02/20 10:30:39;;;;;;;26.08;12.75;;;;;;;10.45;76.69;102312.94;5075864;28;20048;-67
2023/02/20 10:33:22;;;;;;;26.23;12.85;;;;;;;10.34;77.05;102323.13;5077430;28;20067;-67
2023/02/20 10:36:27;;;;;;;26.33;12.02;;;;;;;10.38;77.37;102313.22;5076023;28;20052;-67
2023/02/20 10:39:09;;;;;;;26.50;13.40;;;;;;;10.29;76.79;102319.56;5055152;28;20074;-68
2023/02/20 10:41:59;;;;;;;29.20;13.90;;;;;;;10.00;79.38;102322.75;5066013;28;20071;-67
2023/02/20 10:44:30;;;;;;;28.75;14.35;;;;;;;9.89;79.29;102323.78;5074009;28;20041;-68
2023/02/20 10:47:41;;;;;;;30.20;14.13;;;;;;;10.45;78.34;102313.78;5063836;28;20542;-67
2023/02/20 10:50:22;;;;;;;30.13;15.45;;;;;;;10.35;76.88;102327.53;5068393;28;20063;-68
2023/02/20 10:52:54;;;;;;;26.50;14.60;;;;;;;10.62;77.00;102330.03;5064264;28;20045;-66
2023/02/20 10:55:33;;;;;;;26.77;14.68;;;;;;;10.23;77.64;102325.03;5066600;28;20051;-68
2023/02/20 10:58:09;;;;;;;32.05;14.15;;;;;;;10.44;77.69;102317.66;5057155;28;20068;-68
2023/02/20 11:00:45;;;;;;;25.23;13.48;;;;;;;10.88;76.66;102320.69;5060570;28;20492;-67
2023/02/20 11:03:20;;;;;;;29.52;13.90;;;;;;;10.56;75.40;102325.63;5067351;28;20083;-69
2023/02/20 11:05:52;;;;;;;26.08;12.68;;;;;;;10.97;75.48;102319.00;5063687;28;20384;-67
2023/02/20 11:08:20;;;;;;;21.15;12.38;;;;;;;10.68;76.15;102315.16;5056124;28;20061;-67
2023/02/20 11:10:48;;;;;;;28.58;13.80;;;;;;;10.03;79.40;102319.44;5073083;28;20040;-70
2023/02/20 11:13:22;;;;;;;34.60;14.13;;;;;;;10.11;80.00;102316.19;5078997;28;20492;-68
2023/02/20 11:15:53;;;;;;;25.10;13.38;;;;;;;9.88;79.00;102313.91;5084299;28;20044;-68
2023/02/20 11:18:34;;;;;;;34.50;13.55;;;;;;;10.20;80.05;102316.47;5078966;28;20059;-68
2023/02/20 11:21:02;;;;;;;31.73;13.82;;;;;;;10.18;79.49;102296.66;5070905;28;20083;-66
2023/02/20 11:23:41;;;;;;;27.35;13.95;;;;;;;9.78;80.82;102302.03;5071302;28;20051;-68
2023/02/20 11:26:15;;;;;;;29.52;14.32;;;;;;;9.91;80.85;102301.50;5073810;28;20045;-68
2023/02/20 11:28:42;;;;;;;32.78;16.80;;;;;;;9.65;81.68;102300.59;5053945;28;20049;-68
2023/02/20 11:31:10;;;;;;;31.45;15.55;;;;;;;9.90;80.81;102294.34;5068404;28;20078;-66
2023/02/20 11:33:46;;;;;;;36.65;15.95;;;;;;;9.98;80.06;102285.56;5069853;28;20052;-68
2023/02/20 11:36:17;;;;;;;25.70;13.82;;;;;;;10.39;79.09;102286.50;5076929;28;20053;-68
2023/02/20 11:38:48;;;;;;;29.52;14.07;;;;;;;10.40;78.28;102285.41;5065557;28;20055;-69
2023/02/20 11:41:35;;;;;;;26.10;14.00;;;;;;;10.31;78.45;102278.75;5062067;28;20049;-70
2023/02/20 11:44:06;;;;;;;24.52;13.50;;;;;;;10.51;77.13;102268.63;5075849;28;20047;-68
2023/02/20 11:46:34;;;;;;;26.70;14.57;;;;;;;10.66;77.02;102276.88;5076595;28;20044;-68
2023/02/20 11:49:10;;;;;;;26.42;14.85;;;;;;;10.76;76.05;102276.84;5087570;28;20052;-68
2023/02/20 11:51:39;;;;;;;32.90;19.50;;;;;;;10.65;76.55;102268.88;5075250;28;20046;-69
2023/02/20 11:54:15;;;;;;;28.27;16.42;;;;;;;10.95;75.76;102269.66;5083507;28;20044;-68